Time;durP1;ratioP1;P1;durP2;ratioP2;P2;SDS_P1;SDS_P2;PMS_P1;PMS_P2;Temp;Humidity;BMP_temperature;BMP_pressure;BME280_temperature;BME280_humidity;BME280_pressure;Samples;Min_cycle;Max_cycle;Signal;HPM_P1;HPM_P2
2021/12/18 00:02:24;;;;;;;25.37;11.83;;;;;;;;;;5063572;28;20226;-82
2021/12/18 00:04:51;;;;;;;31.10;14.13;;;;;;;;;;5067504;28;20211;-82
2021/12/18 00:07:20;;;;;;;30.33;12.63;;;;;;;;;;5065708;28;20213;-81
2021/12/18 00:09:48;;;;;;;23.00;12.00;;;;;;;;;;5078661;28;20206;-81
2021/12/18 00:12:15;;;;;;;29.60;11.97;;;;;;;;;;5068755;28;20461;-81
2021/12/18 00:14:43;;;;;;;27.63;11.57;;;;;;;;;;5065280;28;20237;-80
2021/12/18 00:17:10;;;;;;;26.13;10.77;;;;;;;;;;5068309;28;20206;-82
2021/12/18 00:19:39;;;;;;;27.50;12.17;;;;;;;;;;5066522;28;20645;-81
2021/12/18 00:22:06;;;;;;;27.40;12.17;;;;;;;;;;5066963;28;20484;-82
2021/12/18 00:24:35;;;;;;;24.37;11.70;;;;;;;;;;5064859;28;20532;-82
2021/12/18 00:27:02;;;;;;;29.73;12.00;;;;;;;;;;5065145;28;20198;-82
2021/12/18 00:29:29;;;;;;;27.13;11.90;;;;;;;;;;5067853;28;20248;-82
2021/12/18 00:31:57;;;;;;;27.63;11.53;;;;;;;;;;5065862;28;20255;-81
2021/12/18 00:34:24;;;;;;;29.23;12.47;;;;;;;;;;5074509;28;20261;-82
2021/12/18 00:36:51;;;;;;;29.87;12.13;;;;;;;;;;5081819;28;20194;-82
2021/12/18 00:39:19;;;;;;;26.33;12.07;;;;;;;;;;5070198;28;20335;-82
2021/12/18 00:42:07;;;;;;;30.47;11.50;;;;;;;;;;5065101;28;20256;-81
2021/12/18 00:44:35;;;;;;;30.00;11.83;;;;;;;;;;5068366;28;21238;-81
2021/12/18 00:47:02;;;;;;;30.43;11.63;;;;;;;;;;5068667;28;20230;-81
2021/12/18 00:49:29;;;;;;;32.13;11.80;;;;;;;;;;5066973;28;20590;-81
2021/12/18 00:51:56;;;;;;;23.77;11.50;;;;;;;;;;5067996;28;20229;-83
2021/12/18 00:54:23;;;;;;;31.70;11.80;;;;;;;;;;5068267;28;20552;-82
2021/12/18 00:56:52;;;;;;;29.10;11.97;;;;;;;;;;5068038;28;20525;-82
2021/12/18 00:59:19;;;;;;;25.87;10.67;;;;;;;;;;5068290;28;20486;-82
2021/12/18 01:01:47;;;;;;;27.73;10.47;;;;;;;;;;5065980;28;21084;-82
2021/12/18 01:04:14;;;;;;;29.23;11.87;;;;;;;;;;5066825;28;20251;-82
2021/12/18 01:06:41;;;;;;;28.17;10.37;;;;;;;;;;5067980;28;20228;-82
2021/12/18 01:09:08;;;;;;;30.43;11.87;;;;;;;;;;5071799;28;20271;-81
2021/12/18 01:11:42;;;;;;;31.47;11.00;;;;;;;;;;5068124;22;20250;-83
2021/12/18 01:22:40;;;;;;;32.10;11.23;;;;;;;;;;5052976;28;20221;-83
2021/12/18 01:22:48;;;;;;;35.37;10.50;;;;;;;;;;5024390;28;20238;-83
2021/12/18 01:25:15;;;;;;;24.70;9.73;;;;;;;;;;5027376;28;20209;-83
2021/12/18 01:27:42;;;;;;;26.87;10.70;;;;;;;;;;5045769;28;20246;-83
2021/12/18 01:30:13;;;;;;;22.20;9.03;;;;;;;;;;5066230;28;20221;-84
2021/12/18 01:32:40;;;;;;;27.67;9.47;;;;;;;;;;5064704;28;20227;-84
2021/12/18 01:35:08;;;;;;;21.03;8.67;;;;;;;;;;5066760;28;20720;-83
2021/12/18 01:41:08;;;;;;;21.73;8.87;;;;;;;;;;5054758;28;20230;-83
2021/12/18 01:46:34;;;;;;;21.10;8.67;;;;;;;;;;5082336;28;20270;-83
2021/12/18 01:51:59;;;;;;;21.70;8.73;;;;;;;;;;5065628;28;20226;-83
2021/12/18 01:54:27;;;;;;;22.33;9.37;;;;;;;;;;5065070;28;20681;-83
2021/12/18 01:56:54;;;;;;;25.13;9.70;;;;;;;;;;5063671;28;20258;-83
2021/12/18 01:59:33;;;;;;;30.50;11.10;;;;;;;;;;5064222;28;20234;-83
2021/12/18 02:02:02;;;;;;;26.10;10.13;;;;;;;;;;5067105;28;20330;-82
2021/12/18 02:04:29;;;;;;;25.60;9.63;;;;;;;;;;5066157;28;20248;-83
2021/12/18 02:06:56;;;;;;;23.70;9.27;;;;;;;;;;5063551;28;20226;-83
2021/12/18 02:09:28;;;;;;;27.03;10.40;;;;;;;;;;5065518;28;21005;-83
2021/12/18 02:11:57;;;;;;;25.67;9.23;;;;;;;;;;5064053;28;21546;-83
2021/12/18 02:19:30;;;;;;;27.40;9.27;;;;;;;;;;5064598;28;20290;-83
2021/12/18 02:20:22;;;;;;;24.87;9.63;;;;;;;;;;5064299;28;20685;-82
2021/12/18 02:22:49;;;;;;;28.23;8.87;;;;;;;;;;5064875;28;20222;-83
2021/12/18 02:25:17;;;;;;;22.93;7.80;;;;;;;;;;5063106;28;20214;-83
2021/12/18 02:27:44;;;;;;;19.30;7.10;;;;;;;;;;5064302;28;21490;-83
2021/12/18 02:30:12;;;;;;;30.03;8.80;;;;;;;;;;5064973;28;20484;-82
2021/12/18 02:32:39;;;;;;;22.43;8.40;;;;;;;;;;5063618;28;20726;-83
2021/12/18 02:35:09;;;;;;;24.60;8.63;;;;;;;;;;5063881;28;20202;-83
2021/12/18 02:37:40;;;;;;;25.33;8.37;;;;;;;;;;5067718;28;20905;-83
2021/12/18 02:42:57;;;;;;;23.87;8.13;;;;;;;;;;5058313;28;20323;-82
2021/12/18 02:45:24;;;;;;;24.90;8.13;;;;;;;;;;5058508;28;20206;-83
2021/12/18 02:47:53;;;;;;;23.40;8.23;;;;;;;;;;5063114;28;20218;-83
2021/12/18 02:50:21;;;;;;;27.67;8.60;;;;;;;;;;5064265;28;20626;-81
2021/12/18 02:52:49;;;;;;;22.33;8.10;;;;;;;;;;5063102;28;20218;-81
2021/12/18 02:55:16;;;;;;;29.43;9.70;;;;;;;;;;5067728;28;20265;-82
2021/12/18 02:57:44;;;;;;;27.93;9.60;;;;;;;;;;5069751;28;20226;-82
2021/12/18 03:00:11;;;;;;;27.27;10.37;;;;;;;;;;5062072;28;20762;-83
2021/12/18 03:02:42;;;;;;;28.90;9.30;;;;;;;;;;5057632;28;20237;-83
2021/12/18 03:05:15;;;;;;;28.93;9.60;;;;;;;;;;5060316;28;20236;-82
2021/12/18 03:07:42;;;;;;;29.20;9.90;;;;;;;;;;5065256;28;20285;-82
2021/12/18 03:22:20;;;;;;;31.00;9.13;;;;;;;;;;5057932;28;20705;-83
2021/12/18 03:24:41;;;;;;;31.07;9.77;;;;;;;;;;5074259;28;20205;-83
2021/12/18 03:27:09;;;;;;;31.97;9.80;;;;;;;;;;5083683;28;20282;-84
2021/12/18 03:29:36;;;;;;;29.93;9.17;;;;;;;;;;5083477;28;20182;-83
2021/12/18 03:32:05;;;;;;;31.07;10.57;;;;;;;;;;5069564;28;20211;-83
2021/12/18 03:34:32;;;;;;;29.50;10.23;;;;;;;;;;5070367;28;20198;-83
2021/12/18 03:37:03;;;;;;;37.27;11.20;;;;;;;;;;5070676;28;20275;-83
2021/12/18 03:39:30;;;;;;;33.87;9.83;;;;;;;;;;5081158;28;20225;-82
2021/12/18 03:41:58;;;;;;;31.33;10.57;;;;;;;;;;5070018;28;20795;-82
2021/12/18 03:44:27;;;;;;;33.27;10.17;;;;;;;;;;5066252;28;20210;-83
2021/12/18 03:46:55;;;;;;;30.50;10.20;;;;;;;;;;5063141;28;20252;-82
2021/12/18 03:49:22;;;;;;;37.33;10.93;;;;;;;;;;5065445;28;20216;-82
2021/12/18 03:51:49;;;;;;;32.30;10.10;;;;;;;;;;5066282;28;20232;-83
2021/12/18 03:54:17;;;;;;;33.27;9.70;;;;;;;;;;5064477;28;20328;-83
2021/12/18 03:56:44;;;;;;;39.07;11.00;;;;;;;;;;5061034;28;20270;-82
2021/12/18 03:59:11;;;;;;;34.83;10.70;;;;;;;;;;5058121;28;20252;-83
2021/12/18 04:01:45;;;;;;;38.50;10.87;;;;;;;;;;5057931;28;20738;-83
2021/12/18 04:04:12;;;;;;;35.97;10.87;;;;;;;;;;5061388;28;20267;-83
2021/12/18 04:06:39;;;;;;;37.37;10.47;;;;;;;;;;5058282;28;20325;-82
2021/12/18 04:09:07;;;;;;;34.93;10.10;;;;;;;;;;5057342;28;20684;-82
2021/12/18 04:11:34;;;;;;;43.83;11.87;;;;;;;;;;5057920;28;20234;-82
2021/12/18 04:14:03;;;;;;;50.97;10.93;;;;;;;;;;5061278;28;20298;-82
2021/12/18 04:16:30;;;;;;;54.47;11.80;;;;;;;;;;5060184;28;20199;-81
2021/12/18 04:18:59;;;;;;;46.07;10.63;;;;;;;;;;5064463;28;20324;-81
2021/12/18 04:21:26;;;;;;;46.10;11.17;;;;;;;;;;5056264;28;20317;-81
2021/12/18 04:23:54;;;;;;;49.57;10.77;;;;;;;;;;5060231;28;20600;-81
2021/12/18 04:26:21;;;;;;;39.17;10.97;;;;;;;;;;5064580;28;20273;-81
2021/12/18 04:28:48;;;;;;;32.83;10.40;;;;;;;;;;5062822;28;20586;-81
2021/12/18 04:31:16;;;;;;;41.70;10.37;;;;;;;;;;5065217;28;20272;-82
2021/12/18 04:33:43;;;;;;;51.70;11.03;;;;;;;;;;5061015;28;20262;-83
2021/12/18 04:36:12;;;;;;;45.20;10.63;;;;;;;;;;5065621;28;20754;-83
2021/12/18 04:38:39;;;;;;;43.10;10.83;;;;;;;;;;5061450;28;20662;-82
2021/12/18 04:41:09;;;;;;;38.57;11.47;;;;;;;;;;5060909;28;20246;-81
2021/12/18 04:43:36;;;;;;;33.93;9.67;;;;;;;;;;5061854;28;20317;-82
2021/12/18 04:46:03;;;;;;;40.23;10.60;;;;;;;;;;5061614;28;20274;-81
2021/12/18 04:48:31;;;;;;;33.10;10.13;;;;;;;;;;5063827;28;20222;-82
2021/12/18 04:50:58;;;;;;;31.23;9.57;;;;;;;;;;5061396;28;20226;-82
2021/12/18 04:53:27;;;;;;;44.60;8.67;;;;;;;;;;5061664;28;20221;-81
2021/12/18 04:55:54;;;;;;;35.43;9.87;;;;;;;;;;5061036;28;20279;-83
2021/12/18 04:58:21;;;;;;;44.23;10.00;;;;;;;;;;5066224;28;20213;-83
2021/12/18 05:00:49;;;;;;;47.00;9.63;;;;;;;;;;5066974;28;20774;-83
2021/12/18 05:03:17;;;;;;;42.10;9.70;;;;;;;;;;5069247;28;20783;-83
2021/12/18 05:05:45;;;;;;;39.50;10.10;;;;;;;;;;5080419;28;20211;-82
2021/12/18 05:08:12;;;;;;;37.30;8.67;;;;;;;;;;5079644;28;20206;-82
2021/12/18 05:10:41;;;;;;;34.40;8.83;;;;;;;;;;5080713;28;20237;-82
2021/12/18 05:13:08;;;;;;;34.67;9.53;;;;;;;;;;5058159;28;20305;-82
2021/12/18 05:15:35;;;;;;;37.47;8.50;;;;;;;;;;5062873;28;20298;-82
2021/12/18 05:18:02;;;;;;;37.63;8.93;;;;;;;;;;5065797;28;20202;-82
2021/12/18 05:20:29;;;;;;;43.37;9.60;;;;;;;;;;5063138;28;20202;-81
2021/12/18 05:22:57;;;;;;;36.50;8.60;;;;;;;;;;5067264;28;20218;-83
2021/12/18 05:25:24;;;;;;;38.73;9.03;;;;;;;;;;5067699;28;20341;-83
2021/12/18 05:27:56;;;;;;;35.30;9.20;;;;;;;;;;5063346;28;20207;-83
2021/12/18 05:30:23;;;;;;;33.27;9.07;;;;;;;;;;5068547;28;20961;-82
2021/12/18 05:32:50;;;;;;;32.73;8.70;;;;;;;;;;5063750;28;20218;-83
2021/12/18 05:35:18;;;;;;;31.30;8.60;;;;;;;;;;5062967;28;20211;-83
2021/12/18 05:37:51;;;;;;;41.20;9.40;;;;;;;;;;5062771;28;20674;-81
2021/12/18 05:40:19;;;;;;;31.20;8.63;;;;;;;;;;5065428;28;20256;-81
2021/12/18 05:42:47;;;;;;;43.80;9.30;;;;;;;;;;5062081;28;20271;-81
2021/12/18 05:45:15;;;;;;;38.67;9.00;;;;;;;;;;5063204;28;20256;-81
2021/12/18 05:47:43;;;;;;;48.10;10.53;;;;;;;;;;5063036;28;20300;-82
2021/12/18 05:50:15;;;;;;;36.10;8.83;;;;;;;;;;5069034;28;21601;-81
2021/12/18 05:52:44;;;;;;;30.53;8.57;;;;;;;;;;5060667;28;20287;-81
2021/12/18 05:55:12;;;;;;;27.13;7.63;;;;;;;;;;5060344;28;20877;-81
2021/12/18 05:57:39;;;;;;;24.67;7.47;;;;;;;;;;5061491;28;20218;-81
2021/12/18 06:00:08;;;;;;;29.50;8.60;;;;;;;;;;5066137;28;20209;-82
2021/12/18 06:02:36;;;;;;;35.03;9.30;;;;;;;;;;5063046;28;20685;-82
2021/12/18 06:05:04;;;;;;;35.73;8.83;;;;;;;;;;5062920;28;20257;-83
2021/12/18 06:07:38;;;;;;;37.60;9.30;;;;;;;;;;5059077;28;20199;-82
2021/12/18 06:10:06;;;;;;;36.63;8.90;;;;;;;;;;5067431;28;20591;-82
2021/12/18 06:12:33;;;;;;;36.13;9.43;;;;;;;;;;5061495;28;20230;-82
2021/12/18 06:15:00;;;;;;;36.57;8.93;;;;;;;;;;5069563;28;20264;-83
2021/12/18 06:17:27;;;;;;;34.67;7.97;;;;;;;;;;5065694;28;20256;-82
2021/12/18 06:19:56;;;;;;;33.00;8.20;;;;;;;;;;5071698;28;20809;-82
2021/12/18 06:22:23;;;;;;;33.50;8.47;;;;;;;;;;5081098;28;20502;-80
2021/12/18 06:24:50;;;;;;;31.23;8.20;;;;;;;;;;5071893;28;20293;-82
2021/12/18 06:27:17;;;;;;;24.77;7.97;;;;;;;;;;5069085;28;20198;-82
2021/12/18 06:29:46;;;;;;;43.83;9.30;;;;;;;;;;5064347;28;20277;-83
2021/12/18 06:32:13;;;;;;;29.40;8.73;;;;;;;;;;5064804;28;20227;-82
2021/12/18 06:34:40;;;;;;;27.13;8.33;;;;;;;;;;5067185;28;20215;-82
2021/12/18 06:37:14;;;;;;;33.10;8.20;;;;;;;;;;5075071;28;20210;-82
2021/12/18 06:39:41;;;;;;;38.23;9.10;;;;;;;;;;5069889;28;20218;-82
2021/12/18 06:42:09;;;;;;;36.83;8.63;;;;;;;;;;5074229;28;20281;-82
2021/12/18 06:44:36;;;;;;;31.23;9.17;;;;;;;;;;5077250;28;20203;-80
2021/12/18 06:47:03;;;;;;;32.57;8.87;;;;;;;;;;5083220;28;20214;-81
2021/12/18 06:49:31;;;;;;;36.80;8.33;;;;;;;;;;5081882;28;20233;-83
2021/12/18 06:51:58;;;;;;;29.37;9.03;;;;;;;;;;5075474;28;20226;-83
2021/12/18 06:54:27;;;;;;;28.63;8.27;;;;;;;;;;5067188;28;20199;-82
2021/12/18 06:56:54;;;;;;;30.17;8.60;;;;;;;;;;5063212;28;20241;-82
2021/12/18 06:59:22;;;;;;;28.07;8.43;;;;;;;;;;5070581;28;20270;-82
2021/12/18 07:01:52;;;;;;;28.17;8.20;;;;;;;;;;5066662;28;20593;-82
2021/12/18 07:04:19;;;;;;;27.30;7.83;;;;;;;;;;5064112;28;20225;-82
2021/12/18 07:06:46;;;;;;;29.87;7.37;;;;;;;;;;5064028;28;20210;-82
2021/12/18 07:09:13;;;;;;;29.53;7.87;;;;;;;;;;5064478;28;20638;-83
2021/12/18 07:11:44;;;;;;;31.53;8.40;;;;;;;;;;5079815;22;20358;-80
2021/12/18 07:14:12;;;;;;;24.97;7.47;;;;;;;;;;5069860;28;20226;-80
2021/12/18 07:16:40;;;;;;;27.43;8.00;;;;;;;;;;5050905;28;20224;-81
2021/12/18 07:19:07;;;;;;;23.43;7.50;;;;;;;;;;5053934;28;20738;-81
2021/12/18 07:21:34;;;;;;;26.10;6.93;;;;;;;;;;5050181;28;20337;-80
2021/12/18 07:24:01;;;;;;;31.77;9.10;;;;;;;;;;5048518;28;20287;-81
2021/12/18 07:26:30;;;;;;;31.67;9.77;;;;;;;;;;5047970;28;20242;-80
2021/12/18 07:28:59;;;;;;;27.63;8.37;;;;;;;;;;5047777;28;20585;-79
2021/12/18 07:31:26;;;;;;;25.07;7.27;;;;;;;;;;5049392;28;20310;-80
2021/12/18 07:33:53;;;;;;;26.63;7.87;;;;;;;;;;5048423;28;20585;-80
2021/12/18 07:36:21;;;;;;;20.43;6.83;;;;;;;;;;5046919;28;20273;-80
2021/12/18 07:38:48;;;;;;;24.10;7.47;;;;;;;;;;5047458;28;20203;-80
2021/12/18 07:41:15;;;;;;;20.70;7.60;;;;;;;;;;5046897;28;20207;-80
2021/12/18 07:43:42;;;;;;;24.53;9.00;;;;;;;;;;5047542;28;20729;-80
2021/12/18 07:46:11;;;;;;;24.57;7.93;;;;;;;;;;5050428;28;20259;-80
2021/12/18 07:48:38;;;;;;;28.43;9.17;;;;;;;;;;5043112;28;20231;-80
2021/12/18 07:51:05;;;;;;;27.20;8.27;;;;;;;;;;5043557;28;20272;-80
2021/12/18 07:53:33;;;;;;;27.87;9.43;;;;;;;;;;5044198;28;20231;-80
2021/12/18 07:56:01;;;;;;;29.47;10.13;;;;;;;;;;5050608;28;20330;-79
2021/12/18 07:58:28;;;;;;;25.47;8.90;;;;;;;;;;5052827;28;20680;-79
2021/12/18 08:00:55;;;;;;;26.60;9.47;;;;;;;;;;5056759;28;20237;-80
2021/12/18 08:03:24;;;;;;;23.27;7.57;;;;;;;;;;5052304;28;20250;-79
2021/12/18 08:05:51;;;;;;;25.73;8.23;;;;;;;;;;5054677;28;20279;-79
2021/12/18 08:08:19;;;;;;;27.93;7.70;;;;;;;;;;5048565;28;20238;-80
2021/12/18 08:10:46;;;;;;;25.57;7.90;;;;;;;;;;5050100;28;20422;-80
2021/12/18 08:13:13;;;;;;;24.97;9.50;;;;;;;;;;5048380;28;20203;-80
2021/12/18 08:15:40;;;;;;;32.60;11.17;;;;;;;;;;5045383;28;20622;-80
2021/12/18 08:18:08;;;;;;;29.23;10.50;;;;;;;;;;5048161;28;20669;-80
2021/12/18 08:20:36;;;;;;;34.30;11.00;;;;;;;;;;5047585;28;20726;-80
2021/12/18 08:23:04;;;;;;;31.93;10.90;;;;;;;;;;5043374;28;21005;-79
2021/12/18 08:25:32;;;;;;;40.53;14.47;;;;;;;;;;5045840;28;20246;-80
2021/12/18 08:28:00;;;;;;;34.90;12.80;;;;;;;;;;5051660;28;20301;-80
2021/12/18 08:30:27;;;;;;;38.20;13.80;;;;;;;;;;5057492;28;20207;-80
2021/12/18 08:32:55;;;;;;;35.33;12.97;;;;;;;;;;5050348;28;20290;-80
2021/12/18 08:35:25;;;;;;;32.53;11.73;;;;;;;;;;5054439;28;20218;-80
2021/12/18 08:37:53;;;;;;;26.97;11.30;;;;;;;;;;5060225;28;20222;-80
2021/12/18 08:40:21;;;;;;;28.03;11.73;;;;;;;;;;5056645;28;20203;-80
2021/12/18 08:42:48;;;;;;;27.97;10.97;;;;;;;;;;5052949;28;20235;-80
2021/12/18 08:45:16;;;;;;;32.13;11.60;;;;;;;;;;5057136;28;20238;-79
2021/12/18 08:47:43;;;;;;;30.53;11.90;;;;;;;;;;5054990;28;20254;-79
2021/12/18 08:50:13;;;;;;;28.77;10.17;;;;;;;;;;5053962;28;20199;-80
2021/12/18 08:52:40;;;;;;;26.30;10.47;;;;;;;;;;5050838;28;20203;-80
2021/12/18 08:55:10;;;;;;;29.67;10.20;;;;;;;;;;5050700;28;20593;-80
2021/12/18 08:57:37;;;;;;;26.57;9.53;;;;;;;;;;5043304;28;20728;-80
2021/12/18 09:00:05;;;;;;;28.40;9.40;;;;;;;;;;5040903;28;21135;-80
2021/12/18 09:02:32;;;;;;;26.67;9.97;;;;;;;;;;5033887;28;20275;-79
2021/12/18 09:04:59;;;;;;;30.23;9.70;;;;;;;;;;5035837;28;20281;-80
2021/12/18 09:07:27;;;;;;;29.13;9.57;;;;;;;;;;5035436;28;20206;-80
2021/12/18 09:09:54;;;;;;;20.37;8.17;;;;;;;;;;5038857;28;20246;-80
2021/12/18 09:12:23;;;;;;;17.07;7.13;;;;;;;;;;5034248;28;20305;-81
2021/12/18 09:14:50;;;;;;;18.27;7.07;;;;;;;;;;5034074;28;20220;-81
2021/12/18 09:17:17;;;;;;;19.03;7.30;;;;;;;;;;5031552;28;20644;-80
2021/12/18 09:19:44;;;;;;;19.87;6.67;;;;;;;;;;5036455;28;20335;-81
2021/12/18 09:22:12;;;;;;;15.17;5.97;;;;;;;;;;5034337;28;20294;-80
2021/12/18 09:24:39;;;;;;;16.63;6.50;;;;;;;;;;5030161;28;20219;-80
2021/12/18 09:27:07;;;;;;;17.10;6.43;;;;;;;;;;5038559;28;20195;-81
2021/12/18 09:29:35;;;;;;;15.37;5.87;;;;;;;;;;5046294;28;20236;-80
2021/12/18 09:32:02;;;;;;;14.13;5.33;;;;;;;;;;5047577;28;20271;-80
2021/12/18 09:34:31;;;;;;;10.97;4.83;;;;;;;;;;5046657;28;20195;-80
2021/12/18 09:36:58;;;;;;;9.33;3.90;;;;;;;;;;5046293;28;20206;-80
2021/12/18 09:39:25;;;;;;;7.27;3.07;;;;;;;;;;5052705;28;20282;-80
2021/12/18 09:41:53;;;;;;;7.37;3.10;;;;;;;;;;5050897;28;20225;-80
2021/12/18 09:44:22;;;;;;;6.30;3.00;;;;;;;;;;5047123;28;20401;-79
2021/12/18 09:46:51;;;;;;;6.00;2.97;;;;;;;;;;5038767;28;20290;-80
2021/12/18 09:49:18;;;;;;;7.10;3.00;;;;;;;;;;5040467;28;20227;-80
2021/12/18 09:51:45;;;;;;;5.57;2.60;;;;;;;;;;5042256;28;20275;-79
2021/12/18 09:54:13;;;;;;;6.20;2.93;;;;;;;;;;5041347;28;20235;-80
2021/12/18 09:56:40;;;;;;;5.63;2.90;;;;;;;;;;5041433;28;20250;-80
2021/12/18 09:59:07;;;;;;;6.60;3.37;;;;;;;;;;5041773;28;20211;-80
2021/12/18 10:01:35;;;;;;;5.17;2.70;;;;;;;;;;5045606;28;20317;-79
2021/12/18 10:04:04;;;;;;;4.83;2.67;;;;;;;;;;5042145;28;20235;-80
2021/12/18 10:06:35;;;;;;;4.17;2.30;;;;;;;;;;5042123;28;20310;-80
2021/12/18 10:09:03;;;;;;;4.00;2.17;;;;;;;;;;5045158;28;20215;-80
2021/12/18 10:11:30;;;;;;;4.03;2.20;;;;;;;;;;5040812;28;20238;-79
2021/12/18 10:13:58;;;;;;;3.77;1.80;;;;;;;;;;5040954;28;20822;-80
2021/12/18 10:16:27;;;;;;;5.67;2.00;;;;;;;;;;5043508;28;20676;-80
2021/12/18 10:18:55;;;;;;;3.03;1.90;;;;;;;;;;5041930;28;20602;-80
2021/12/18 10:21:25;;;;;;;3.50;1.83;;;;;;;;;;5039394;28;20254;-79
2021/12/18 10:23:54;;;;;;;5.30;1.67;;;;;;;;;;5040794;28;20207;-80
2021/12/18 10:26:33;;;;;;;3.43;1.93;;;;;;;;;;5040718;28;20227;-80
2021/12/18 10:29:01;;;;;;;3.37;1.90;;;;;;;;;;5052323;28;20214;-80
2021/12/18 10:31:41;;;;;;;3.70;2.00;;;;;;;;;;5051935;28;20240;-80
2021/12/18 10:34:14;;;;;;;3.10;1.87;;;;;;;;;;5049963;28;20245;-80
2021/12/18 10:36:43;;;;;;;4.13;2.20;;;;;;;;;;5055834;28;20570;-80
2021/12/18 10:39:19;;;;;;;3.07;1.90;;;;;;;;;;5055549;28;20235;-80
2021/12/18 10:41:47;;;;;;;2.97;2.00;;;;;;;;;;5053032;28;20203;-80
2021/12/18 10:44:14;;;;;;;2.73;1.50;;;;;;;;;;5053921;28;20250;-80
2021/12/18 10:46:43;;;;;;;2.13;1.40;;;;;;;;;;5048684;28;20284;-79
2021/12/18 10:49:11;;;;;;;3.03;1.73;;;;;;;;;;5050534;28;20207;-80
2021/12/18 10:51:39;;;;;;;2.87;1.70;;;;;;;;;;5052198;28;20290;-80
2021/12/18 10:54:08;;;;;;;3.70;1.93;;;;;;;;;;5050745;28;20673;-80
2021/12/18 10:56:37;;;;;;;3.30;1.73;;;;;;;;;;5044291;28;20223;-80
2021/12/18 10:59:06;;;;;;;2.33;1.50;;;;;;;;;;5043419;28;20672;-80
2021/12/18 11:01:36;;;;;;;4.30;1.70;;;;;;;;;;5042479;28;20203;-80
2021/12/18 11:04:04;;;;;;;2.53;1.63;;;;;;;;;;5043655;28;20203;-80
2021/12/18 11:06:32;;;;;;;4.07;2.90;;;;;;;;;;5041784;28;20342;-80
2021/12/18 11:09:06;;;;;;;4.17;2.40;;;;;;;;;;5044605;28;20203;-81
2021/12/18 11:14:26;;;;;;;5.43;2.97;;;;;;;;;;5042944;28;20214;-80
2021/12/18 11:16:55;;;;;;;4.30;2.40;;;;;;;;;;5044264;28;20296;-82
2021/12/18 11:19:23;;;;;;;3.10;2.20;;;;;;;;;;5053817;28;20245;-81
2021/12/18 11:21:51;;;;;;;4.17;2.03;;;;;;;;;;5043675;28;20196;-81
2021/12/18 11:24:21;;;;;;;3.53;1.80;;;;;;;;;;5040671;28;20310;-80
2021/12/18 11:26:52;;;;;;;2.37;1.50;;;;;;;;;;5041681;28;20290;-81
2021/12/18 11:29:21;;;;;;;2.73;1.60;;;;;;;;;;5045459;28;20227;-80
2021/12/18 11:31:49;;;;;;;3.63;2.10;;;;;;;;;;5036120;28;20214;-80
2021/12/18 11:34:16;;;;;;;3.03;1.77;;;;;;;;;;5031322;28;20217;-79
2021/12/18 11:36:45;;;;;;;2.93;1.97;;;;;;;;;;5031647;28;20733;-80
2021/12/18 11:39:13;;;;;;;3.47;2.20;;;;;;;;;;5041074;28;20219;-81
2021/12/18 11:41:41;;;;;;;5.00;2.60;;;;;;;;;;5038180;28;20261;-81
2021/12/18 11:44:26;;;;;;;5.50;3.07;;;;;;;;;;5054188;28;20234;-80
2021/12/18 11:46:53;;;;;;;7.93;4.27;;;;;;;;;;5044325;28;20242;-80
2021/12/18 11:49:21;;;;;;;110.23;51.20;;;;;;;;;;5045693;28;20207;-81
2021/12/18 11:51:59;;;;;;;16.30;8.93;;;;;;;;;;5037631;28;20289;-80
2021/12/18 11:54:56;;;;;;;40.77;20.43;;;;;;;;;;5034233;28;20232;-80
2021/12/18 11:57:38;;;;;;;207.53;96.53;;;;;;;;;;4963804;28;22172;-79
2021/12/18 12:00:09;;;;;;;99.13;50.27;;;;;;;;;;5027449;28;20249;-80
2021/12/18 12:02:46;;;;;;;78.47;43.50;;;;;;;;;;5043986;28;20287;-81
2021/12/18 12:05:15;;;;;;;7.53;4.00;;;;;;;;;;5043691;28;20337;-81
2021/12/18 12:07:44;;;;;;;5.13;3.10;;;;;;;;;;5050334;28;20667;-81
2021/12/18 12:10:21;;;;;;;6.43;3.30;;;;;;;;;;5053225;28;20276;-80
2021/12/18 12:12:54;;;;;;;6.10;3.40;;;;;;;;;;5045242;28;20258;-80
2021/12/18 12:15:24;;;;;;;6.37;3.27;;;;;;;;;;5041045;28;20736;-80
2021/12/18 12:17:55;;;;;;;7.40;3.73;;;;;;;;;;5042857;28;20969;-79
2021/12/18 12:20:36;;;;;;;5.90;3.40;;;;;;;;;;5043912;28;20202;-79
2021/12/18 12:23:05;;;;;;;5.33;3.10;;;;;;;;;;5041190;28;20274;-81
2021/12/18 12:25:37;;;;;;;6.50;3.63;;;;;;;;;;5042326;28;20236;-81
2021/12/18 12:28:06;;;;;;;6.03;3.80;;;;;;;;;;5048264;28;20217;-81
2021/12/18 12:30:39;;;;;;;7.77;3.70;;;;;;;;;;5049214;28;20837;-81
2021/12/18 12:33:11;;;;;;;8.57;4.53;;;;;;;;;;5035724;28;20218;-80
2021/12/18 12:35:55;;;;;;;7.03;3.70;;;;;;;;;;5050933;28;20246;-82
2021/12/18 12:38:23;;;;;;;13.17;7.20;;;;;;;;;;5049630;28;20279;-80
2021/12/18 12:40:52;;;;;;;8.83;4.77;;;;;;;;;;5050080;28;20676;-80
2021/12/18 12:43:22;;;;;;;8.93;4.57;;;;;;;;;;5051083;28;20200;-81
2021/12/18 12:45:53;;;;;;;27.10;15.77;;;;;;;;;;5045740;28;20317;-81
2021/12/18 12:48:21;;;;;;;13.17;6.90;;;;;;;;;;5043503;28;20298;-79
2021/12/18 12:50:56;;;;;;;22.60;9.10;;;;;;;;;;5049522;28;20218;-79
2021/12/18 12:53:24;;;;;;;13.03;6.07;;;;;;;;;;5058076;28;20213;-80
2021/12/18 12:55:52;;;;;;;9.73;4.77;;;;;;;;;;5046356;28;20333;-80
2021/12/18 12:58:21;;;;;;;12.47;4.80;;;;;;;;;;5040489;28;20207;-79
2021/12/18 13:00:54;;;;;;;10.87;5.57;;;;;;;;;;5054379;28;20233;-80
2021/12/18 13:03:28;;;;;;;11.77;5.47;;;;;;;;;;5050559;28;20209;-81
2021/12/18 13:06:01;;;;;;;12.30;6.37;;;;;;;;;;5049068;28;20223;-80
2021/12/18 13:08:29;;;;;;;11.17;5.50;;;;;;;;;;5048805;28;20238;-83
2021/12/18 13:10:59;;;;;;;10.47;5.53;;;;;;;;;;5048790;28;20211;-80
2021/12/18 13:13:27;;;;;;;10.80;5.90;;;;;;;;;;5051581;28;20215;-82
2021/12/18 13:15:58;;;;;;;10.33;5.50;;;;;;;;;;5041738;28;20753;-80
2021/12/18 13:18:26;;;;;;;8.60;4.50;;;;;;;;;;5046602;28;20229;-81
2021/12/18 13:20:55;;;;;;;11.50;4.93;;;;;;;;;;5045021;28;20195;-81
2021/12/18 13:23:23;;;;;;;8.70;4.60;;;;;;;;;;5044117;28;20556;-79
2021/12/18 13:25:51;;;;;;;7.93;3.93;;;;;;;;;;5062886;28;20235;-80
2021/12/18 13:28:19;;;;;;;8.03;4.37;;;;;;;;;;5067004;28;20203;-79
2021/12/18 13:30:48;;;;;;;10.40;5.00;;;;;;;;;;5062706;28;20206;-80
2021/12/18 13:33:17;;;;;;;9.53;5.17;;;;;;;;;;5050221;28;20687;-81
2021/12/18 13:35:44;;;;;;;9.73;5.03;;;;;;;;;;5045371;28;20215;-80
2021/12/18 13:38:15;;;;;;;11.27;5.87;;;;;;;;;;5049671;28;20206;-81
2021/12/18 13:40:45;;;;;;;8.00;4.63;;;;;;;;;;5041389;28;20246;-80
2021/12/18 13:43:13;;;;;;;11.73;5.40;;;;;;;;;;5036779;28;20263;-81
2021/12/18 13:45:50;;;;;;;9.77;4.93;;;;;;;;;;5035469;28;20353;-79
2021/12/18 13:48:19;;;;;;;11.43;6.10;;;;;;;;;;5041915;28;20237;-80
2021/12/18 13:50:52;;;;;;;10.43;5.90;;;;;;;;;;5039104;28;20289;-81
2021/12/18 13:53:20;;;;;;;11.30;5.93;;;;;;;;;;5040054;28;20222;-81
2021/12/18 13:55:51;;;;;;;14.33;7.50;;;;;;;;;;5038765;28;20714;-80
2021/12/18 13:58:19;;;;;;;11.23;5.47;;;;;;;;;;5044776;28;20237;-81
2021/12/18 14:01:01;;;;;;;11.63;5.93;;;;;;;;;;5039029;28;20222;-81
2021/12/18 14:03:31;;;;;;;12.20;5.70;;;;;;;;;;5049342;28;20242;-79
2021/12/18 14:06:00;;;;;;;8.57;5.07;;;;;;;;;;5046554;28;20223;-82
2021/12/18 14:08:28;;;;;;;11.73;7.27;;;;;;;;;;5048152;28;20245;-81
2021/12/18 14:10:55;;;;;;;11.97;6.90;;;;;;;;;;5045848;28;20456;-82
2021/12/18 14:13:23;;;;;;;10.43;5.63;;;;;;;;;;5039226;28;20216;-82
2021/12/18 14:15:50;;;;;;;10.30;5.37;;;;;;;;;;5056231;22;20301;-82
2021/12/18 14:18:35;;;;;;;10.33;5.30;;;;;;;;;;5040333;28;20227;-81
2021/12/18 14:21:03;;;;;;;12.50;5.70;;;;;;;;;;5040994;28;20274;-82
2021/12/18 14:23:31;;;;;;;8.47;4.47;;;;;;;;;;5039010;28;20715;-82
2021/12/18 14:26:12;;;;;;;11.70;4.70;;;;;;;;;;5042892;28;20720;-83
2021/12/18 14:28:39;;;;;;;15.87;6.93;;;;;;;;;;5035614;28;20203;-83
2021/12/18 14:31:21;;;;;;;17.53;10.73;;;;;;;;;;5041593;28;20204;-82
2021/12/18 14:33:54;;;;;;;20.07;11.53;;;;;;;;;;5040939;28;20203;-83
2021/12/18 14:36:36;;;;;;;16.63;11.90;;;;;;;;;;5047556;28;20251;-82
2021/12/18 14:39:03;;;;;;;10.53;5.67;;;;;;;;;;5046871;28;20231;-82
2021/12/18 14:41:32;;;;;;;17.27;9.83;;;;;;;;;;5044095;28;20222;-82
2021/12/18 14:44:00;;;;;;;16.80;9.93;;;;;;;;;;5040361;28;20199;-82
2021/12/18 14:46:27;;;;;;;19.47;13.70;;;;;;;;;;5046900;28;20920;-82
2021/12/18 14:48:56;;;;;;;17.10;9.97;;;;;;;;;;5041942;28;20208;-82
2021/12/18 14:51:26;;;;;;;11.97;6.50;;;;;;;;;;5049873;28;20689;-82
2021/12/18 14:53:59;;;;;;;15.03;8.97;;;;;;;;;;5048043;28;20298;-82
2021/12/18 14:56:26;;;;;;;11.97;6.60;;;;;;;;;;5042839;28;20313;-81
2021/12/18 14:58:53;;;;;;;16.67;8.57;;;;;;;;;;5046270;28;20226;-80
2021/12/18 15:01:23;;;;;;;15.60;9.67;;;;;;;;;;5045400;28;20242;-80
2021/12/18 15:03:50;;;;;;;15.20;8.27;;;;;;;;;;5048107;28;20239;-80
2021/12/18 15:06:24;;;;;;;13.80;7.30;;;;;;;;;;5048296;28;20234;-81
2021/12/18 15:08:56;;;;;;;10.27;5.33;;;;;;;;;;5044439;28;20214;-84
2021/12/18 15:11:27;;;;;;;12.13;6.47;;;;;;;;;;5047877;28;20237;-81
2021/12/18 15:13:56;;;;;;;9.03;5.37;;;;;;;;;;5047062;28;20207;-83
2021/12/18 15:16:28;;;;;;;16.07;6.17;;;;;;;;;;5046843;28;20651;-82